Time;durP1;ratioP1;P1;durP2;ratioP2;P2;SDS_P1;SDS_P2;PMS_P1;PMS_P2;Temp;Humidity;BMP_temperature;BMP_pressure;BME280_temperature;BME280_humidity;BME280_pressure;Samples;Min_cycle;Max_cycle;Signal;HPM_P1;HPM_P2
2023/06/04 00:02:05;;;;;;;3.40;1.97;;;13.90;1.00;;;;;;5097923;28;20544;-69
2023/06/04 00:04:32;;;;;;;3.63;2.10;;;13.90;1.00;;;;;;5097805;28;20550;-69
2023/06/04 00:06:59;;;;;;;2.63;2.43;;;13.90;1.00;;;;;;5098255;28;20536;-69
2023/06/04 00:09:27;;;;;;;3.63;2.20;;;13.90;1.00;;;;;;5098094;28;20539;-69
2023/06/04 00:11:54;;;;;;;2.77;2.13;;;13.90;1.00;;;;;;5097617;28;20463;-69
2023/06/04 00:14:21;;;;;;;3.37;2.10;;;13.90;1.00;;;;;;5097605;28;20453;-69
2023/06/04 00:16:47;;;;;;;5.13;2.23;;;13.80;1.00;;;;;;5097943;28;20457;-69
2023/06/04 00:19:14;;;;;;;5.63;1.87;;;13.80;1.00;;;;;;5097658;28;20487;-69
2023/06/04 00:21:41;;;;;;;2.20;1.97;;;13.80;1.00;;;;;;5097701;28;20453;-69
2023/06/04 00:24:08;;;;;;;3.03;2.50;;;13.70;1.00;;;;;;5097641;28;20631;-69
2023/06/04 00:26:36;;;;;;;2.83;2.20;;;13.70;1.00;;;;;;5097695;28;20471;-69
2023/06/04 00:29:03;;;;;;;2.83;2.20;;;13.70;1.00;;;;;;5097578;28;20449;-69
2023/06/04 00:31:30;;;;;;;4.00;2.63;;;13.60;1.00;;;;;;5097611;28;20548;-69
2023/06/04 00:33:57;;;;;;;2.60;2.40;;;13.60;1.00;;;;;;5097511;28;20457;-69
2023/06/04 00:36:23;;;;;;;4.30;2.50;;;13.50;1.00;;;;;;5096734;28;20590;-69
2023/06/04 00:38:50;;;;;;;2.73;2.30;;;13.50;1.00;;;;;;5095902;28;20475;-69
2023/06/04 00:41:17;;;;;;;3.00;2.27;;;13.40;1.00;;;;;;5096398;28;20453;-69
2023/06/04 00:43:55;;;;;;;4.93;2.07;;;13.40;1.00;;;;;;5095914;28;20464;-69
2023/06/04 00:46:23;;;;;;;2.70;2.00;;;13.40;1.00;;;;;;5096015;28;20549;-69
2023/06/04 00:48:50;;;;;;;2.47;2.17;;;13.30;1.00;;;;;;5095675;28;20542;-69
2023/06/04 00:51:17;;;;;;;2.80;2.43;;;13.30;1.00;;;;;;5096010;28;20512;-69
2023/06/04 00:53:44;;;;;;;3.87;2.10;;;13.20;1.00;;;;;;5095497;28;20936;-69
2023/06/04 00:56:11;;;;;;;3.10;2.10;;;13.20;1.00;;;;;;5095419;28;20453;-69
2023/06/04 00:58:39;;;;;;;2.93;2.07;;;13.10;1.00;;;;;;5095475;28;20484;-69
2023/06/04 01:01:13;;;;;;;2.40;1.80;;;13.10;1.00;;;;;;5095875;28;20457;-69
2023/06/04 01:03:43;;;;;;;2.50;1.93;;;13.00;1.00;;;;;;5095810;28;20465;-69
2023/06/04 01:06:21;;;;;;;1.80;1.70;;;13.00;1.00;;;;;;5095697;28;20453;-69
2023/06/04 01:08:51;;;;;;;1.93;1.60;;;13.00;1.00;;;;;;5095624;28;20460;-69
2023/06/04 01:11:18;;;;;;;2.83;1.63;;;12.90;1.00;;;;;;5095888;28;20463;-69
2023/06/04 01:13:44;;;;;;;2.90;2.07;;;13.00;1.00;;;;;;5095577;28;20536;-69
2023/06/04 01:16:15;;;;;;;2.60;1.40;;;12.90;1.00;;;;;;5095586;28;20457;-69
2023/06/04 01:18:44;;;;;;;2.27;2.00;;;12.90;1.00;;;;;;5095282;28;20487;-69
2023/06/04 01:21:18;;;;;;;2.80;1.40;;;12.90;1.00;;;;;;5095491;28;20544;-68
2023/06/04 01:23:58;;;;;;;3.00;1.93;;;12.80;1.00;;;;;;5095458;28;20437;-69
2023/06/04 01:26:27;;;;;;;2.37;1.40;;;12.80;1.00;;;;;;5095538;28;20720;-69
2023/06/04 01:28:56;;;;;;;2.80;1.83;;;12.80;1.00;;;;;;5095063;28;20450;-69
2023/06/04 01:31:25;;;;;;;4.83;2.63;;;12.70;1.00;;;;;;5095327;28;20796;-69
2023/06/04 01:33:52;;;;;;;3.60;2.07;;;12.70;1.00;;;;;;5095041;28;20472;-69
2023/06/04 01:36:19;;;;;;;1.90;1.47;;;12.70;1.00;;;;;;5055733;28;1122721;-69
2023/06/04 01:38:46;;;;;;;2.90;1.70;;;12.60;1.00;;;;;;5095981;28;20219;-69
2023/06/04 01:41:13;;;;;;;2.10;1.57;;;12.60;1.00;;;;;;5096226;28;20457;-69
2023/06/04 01:43:40;;;;;;;2.70;1.80;;;12.60;1.00;;;;;;5095757;28;20900;-69
2023/06/04 01:46:07;;;;;;;2.13;1.60;;;12.50;1.00;;;;;;5095855;28;20899;-69
2023/06/04 01:48:36;;;;;;;2.10;1.70;;;12.50;1.00;;;;;;5096098;28;20542;-69
2023/06/04 01:51:03;;;;;;;2.60;1.50;;;12.50;1.00;;;;;;5096005;28;20921;-69
2023/06/04 01:53:30;;;;;;;1.87;1.37;;;12.50;1.00;;;;;;5096143;28;20453;-69
2023/06/04 01:55:58;;;;;;;2.47;1.80;;;12.50;1.00;;;;;;5096309;28;20499;-69
2023/06/04 01:58:26;;;;;;;2.47;1.80;;;12.50;1.00;;;;;;5095616;28;20535;-69
2023/06/04 02:00:54;;;;;;;2.10;1.80;;;12.50;1.00;;;;;;5095712;28;20556;-69
2023/06/04 02:03:21;;;;;;;2.27;1.50;;;12.50;1.00;;;;;;5095691;28;20453;-69
2023/06/04 02:05:50;;;;;;;2.13;1.50;;;12.50;1.00;;;;;;5095785;28;20874;-70
2023/06/04 02:08:18;;;;;;;2.03;1.57;;;12.40;1.00;;;;;;5094723;28;20460;-70
2023/06/04 02:10:47;;;;;;;2.30;1.97;;;12.40;1.00;;;;;;5095928;28;20459;-70
2023/06/04 02:13:14;;;;;;;3.10;1.63;;;12.40;1.00;;;;;;5095271;28;20457;-70
2023/06/04 02:15:41;;;;;;;3.10;2.00;;;12.40;1.00;;;;;;5095226;28;20453;-70
2023/06/04 02:18:16;;;;;;;2.27;1.60;;;12.30;1.00;;;;;;5095342;28;20508;-70
2023/06/04 02:20:44;;;;;;;2.47;1.60;;;12.30;1.00;;;;;;5095061;28;20996;-70
2023/06/04 02:23:13;;;;;;;2.00;1.47;;;12.30;1.00;;;;;;5095623;28;20832;-70
2023/06/04 02:25:41;;;;;;;1.63;1.47;;;12.20;1.00;;;;;;5095576;28;20460;-70
2023/06/04 02:28:08;;;;;;;2.07;1.87;;;12.20;1.00;;;;;;5095370;28;20776;-70
2023/06/04 02:30:35;;;;;;;2.87;1.77;;;12.20;1.00;;;;;;5095143;28;20453;-69
2023/06/04 02:33:01;;;;;;;3.00;2.60;;;12.20;1.00;;;;;;5094728;28;20460;-70
2023/06/04 02:35:29;;;;;;;2.00;1.60;;;12.10;1.00;;;;;;5094742;28;20449;-70
2023/06/04 02:37:57;;;;;;;4.83;2.10;;;12.10;1.00;;;;;;5094615;28;20568;-69
2023/06/04 02:40:26;;;;;;;2.30;1.80;;;12.10;1.00;;;;;;5095252;28;20457;-70
2023/06/04 02:42:53;;;;;;;2.90;2.10;;;12.00;1.00;;;;;;5095390;28;20463;-70
2023/06/04 02:45:20;;;;;;;2.40;1.67;;;12.00;1.00;;;;;;5095329;28;20559;-70
2023/06/04 02:47:47;;;;;;;2.13;1.50;;;12.00;1.00;;;;;;5094939;28;20540;-70
2023/06/04 02:50:15;;;;;;;2.03;1.80;;;11.90;1.00;;;;;;5094496;28;20489;-69
2023/06/04 02:52:42;;;;;;;5.77;2.10;;;11.90;1.00;;;;;;5094672;28;20457;-70
2023/06/04 02:55:11;;;;;;;3.00;1.73;;;11.90;1.00;;;;;;5094750;28;20535;-69
2023/06/04 02:57:42;;;;;;;3.97;1.73;;;11.90;1.00;;;;;;5094289;28;20473;-70
2023/06/04 03:00:12;;;;;;;2.37;1.70;;;11.80;1.00;;;;;;5094532;28;20465;-69
2023/06/04 03:02:40;;;;;;;2.17;1.70;;;11.80;1.00;;;;;;5094624;28;20457;-69
2023/06/04 03:05:12;;;;;;;2.33;2.10;;;11.80;1.00;;;;;;5094166;28;20459;-68
2023/06/04 03:07:40;;;;;;;2.37;1.57;;;11.80;1.00;;;;;;5094049;28;20514;-70
2023/06/04 03:10:08;;;;;;;1.90;1.70;;;11.80;1.00;;;;;;5094898;28;20453;-70
2023/06/04 03:12:35;;;;;;;4.43;2.07;;;11.70;1.00;;;;;;5094531;28;20457;-70
2023/06/04 03:15:04;;;;;;;4.13;1.80;;;11.70;1.00;;;;;;5094137;28;20463;-70
2023/06/04 03:17:32;;;;;;;3.90;1.90;;;11.70;1.00;;;;;;5094018;28;20458;-68
2023/06/04 03:19:59;;;;;;;3.40;1.40;;;11.80;1.00;;;;;;5094413;28;20838;-69
2023/06/04 03:22:26;;;;;;;3.00;1.57;;;11.70;1.00;;;;;;5094321;28;20454;-69
2023/06/04 03:24:53;;;;;;;1.67;1.40;;;11.70;1.00;;;;;;5094519;28;20457;-69
2023/06/04 03:27:20;;;;;;;2.07;1.70;;;11.70;1.00;;;;;;5093923;28;20453;-69
2023/06/04 03:29:47;;;;;;;4.23;1.63;;;11.70;1.00;;;;;;5094391;28;20449;-69
2023/06/04 03:32:16;;;;;;;1.93;1.40;;;11.70;1.00;;;;;;5094468;28;20461;-69
2023/06/04 03:34:44;;;;;;;2.23;2.03;;;11.70;1.00;;;;;;5093969;28;20453;-69
2023/06/04 03:37:10;;;;;;;2.10;1.77;;;11.70;1.00;;;;;;5093926;28;20488;-69
2023/06/04 03:39:37;;;;;;;2.80;1.80;;;11.70;1.00;;;;;;5094038;28;20477;-69
2023/06/04 03:42:05;;;;;;;2.77;1.73;;;11.70;1.00;;;;;;5094096;28;20552;-69
2023/06/04 03:44:32;;;;;;;3.40;1.70;;;11.70;1.00;;;;;;5093736;28;20917;-69
2023/06/04 03:46:59;;;;;;;2.63;1.80;;;11.60;1.00;;;;;;5094464;28;20452;-69
2023/06/04 03:49:27;;;;;;;2.73;1.60;;;11.70;1.00;;;;;;5094069;28;20476;-69
2023/06/04 03:51:54;;;;;;;1.93;1.73;;;11.70;1.00;;;;;;5093891;28;20948;-69
2023/06/04 03:54:22;;;;;;;3.70;1.50;;;11.70;1.00;;;;;;5094317;28;20560;-69
2023/06/04 03:56:49;;;;;;;3.33;2.40;;;11.70;1.00;;;;;;5094234;28;20453;-69
2023/06/04 03:59:16;;;;;;;2.50;1.80;;;11.70;1.00;;;;;;5094021;28;20517;-69
2023/06/04 04:01:44;;;;;;;2.27;1.73;;;11.70;1.00;;;;;;5094443;28;20453;-69
2023/06/04 04:04:11;;;;;;;2.30;1.90;;;11.70;1.00;;;;;;5094107;28;20829;-69
2023/06/04 04:06:39;;;;;;;2.30;1.80;;;11.70;1.00;;;;;;5094231;28;20552;-69
2023/06/04 04:09:06;;;;;;;2.20;2.00;;;11.70;1.00;;;;;;5093710;28;20454;-69
2023/06/04 04:11:33;;;;;;;19.80;11.80;;;11.70;1.00;;;;;;5094223;28;20453;-69
2023/06/04 04:14:01;;;;;;;2.40;1.80;;;11.70;1.00;;;;;;5093793;28;20453;-69
2023/06/04 04:16:28;;;;;;;2.37;1.93;;;11.70;1.00;;;;;;5093897;28;20453;-69
2023/06/04 04:18:55;;;;;;;2.63;2.27;;;11.80;1.00;;;;;;5094581;28;20477;-69
2023/06/04 04:21:22;;;;;;;4.33;2.00;;;11.80;1.00;;;;;;5093972;28;20762;-69
2023/06/04 04:23:52;;;;;;;2.20;2.00;;;11.80;1.00;;;;;;5093911;28;20457;-69
2023/06/04 04:26:19;;;;;;;6.17;2.33;;;11.80;1.00;;;;;;5093668;28;20882;-69
2023/06/04 04:28:45;;;;;;;4.43;2.77;;;11.90;1.00;;;;;;5093525;28;20472;-69
2023/06/04 04:31:12;;;;;;;3.10;2.10;;;11.90;1.00;;;;;;5096626;28;20557;-69
2023/06/04 04:33:40;;;;;;;3.30;2.20;;;11.90;1.00;;;;;;5097446;28;20464;-69
2023/06/04 04:36:12;;;;;;;3.10;1.70;;;11.90;1.00;;;;;;5097249;28;20454;-69
2023/06/04 04:38:39;;;;;;;4.03;1.90;;;11.90;1.00;;;;;;5097071;28;20472;-69
2023/06/04 04:41:08;;;;;;;3.27;2.30;;;12.00;1.00;;;;;;5097575;28;20479;-69
2023/06/04 04:43:37;;;;;;;3.50;2.00;;;12.00;1.00;;;;;;5097171;28;20472;-69
2023/06/04 04:46:04;;;;;;;3.00;2.40;;;12.10;1.00;;;;;;5097305;28;20479;-69
2023/06/04 04:48:31;;;;;;;4.07;2.20;;;12.10;1.00;;;;;;5096983;28;20457;-69
2023/06/04 04:50:58;;;;;;;3.90;1.83;;;12.10;1.00;;;;;;5097236;28;20449;-69
2023/06/04 04:53:25;;;;;;;2.60;1.83;;;12.20;1.00;;;;;;5097295;28;20463;-69
2023/06/04 04:55:51;;;;;;;2.23;1.77;;;12.20;1.00;;;;;;5097134;28;20557;-69
2023/06/04 04:58:20;;;;;;;13.10;8.27;;;12.20;1.00;;;;;;5097021;28;20765;-69
2023/06/04 05:00:47;;;;;;;7.80;2.40;;;12.30;1.00;;;;;;5096935;28;20576;-69
2023/06/04 05:03:14;;;;;;;11.87;2.43;;;12.30;1.00;;;;;;5097015;28;20489;-69
2023/06/04 05:05:41;;;;;;;6.83;2.43;;;12.40;1.00;;;;;;5096472;28;20469;-69
2023/06/04 05:08:08;;;;;;;4.67;2.60;;;12.40;1.00;;;;;;5096655;28;20533;-69
2023/06/04 05:10:36;;;;;;;9.87;2.10;;;12.40;1.00;;;;;;5096856;28;20477;-69
2023/06/04 05:13:04;;;;;;;2.53;2.10;;;12.50;1.00;;;;;;5096592;28;20465;-69
2023/06/04 05:15:33;;;;;;;2.13;1.93;;;12.50;1.00;;;;;;5096711;28;20551;-69
2023/06/04 05:18:03;;;;;;;3.20;1.97;;;12.50;1.00;;;;;;5096539;28;20477;-69
2023/06/04 05:20:30;;;;;;;1.97;1.70;;;12.60;1.00;;;;;;5096805;28;20488;-69
2023/06/04 05:22:57;;;;;;;3.43;2.03;;;12.60;1.00;;;;;;5096799;28;20461;-68
2023/06/04 05:25:25;;;;;;;2.20;1.50;;;12.70;1.00;;;;;;5096481;28;20462;-69
2023/06/04 05:27:52;;;;;;;3.40;1.97;;;12.80;1.00;;;;;;5096567;28;20468;-68
2023/06/04 05:30:19;;;;;;;4.10;2.23;;;12.80;1.00;;;;;;5096138;28;20518;-68
2023/06/04 05:32:47;;;;;;;2.60;2.03;;;12.90;1.00;;;;;;5096637;28;20536;-68
2023/06/04 05:35:14;;;;;;;3.20;1.97;;;12.90;1.00;;;;;;5096267;28;20471;-69
2023/06/04 05:37:41;;;;;;;4.73;1.83;;;13.00;1.00;;;;;;5096220;28;20855;-69
2023/06/04 05:40:10;;;;;;;2.83;2.33;;;13.10;1.00;;;;;;5095835;28;20572;-69
2023/06/04 05:42:37;;;;;;;12.83;6.60;;;13.10;1.00;;;;;;5094818;28;20457;-69
2023/06/04 05:45:08;;;;;;;4.07;3.10;;;13.20;1.00;;;;;;5095884;28;20462;-69
2023/06/04 05:47:34;;;;;;;2.90;2.43;;;13.30;1.00;;;;;;5096499;28;20453;-69
2023/06/04 05:50:03;;;;;;;2.60;2.30;;;13.30;1.00;;;;;;5096089;28;20449;-69
2023/06/04 05:52:30;;;;;;;3.70;1.87;;;13.40;1.00;;;;;;5096464;28;20544;-68
2023/06/04 05:54:57;;;;;;;2.23;1.90;;;13.50;1.00;;;;;;5096209;28;20567;-69
2023/06/04 05:57:25;;;;;;;7.40;2.20;;;13.60;1.00;;;;;;5095783;28;20489;-69
2023/06/04 05:59:51;;;;;;;6.63;2.50;;;13.70;1.00;;;;;;5095914;28;20563;-69
2023/06/04 06:02:18;;;;;;;1.70;1.53;;;13.90;1.00;;;;;;5096574;28;20898;-69
2023/06/04 06:04:45;;;;;;;2.50;1.63;;;13.90;1.00;;;;;;5096157;28;20465;-69
2023/06/04 06:07:13;;;;;;;6.33;2.27;;;14.00;1.00;;;;;;5096208;28;20544;-69
2023/06/04 06:09:40;;;;;;;2.50;1.90;;;14.10;1.00;;;;;;5096163;28;20453;-69
2023/06/04 06:12:07;;;;;;;7.90;6.10;;;14.20;1.00;;;;;;5096029;28;20457;-69
2023/06/04 06:14:35;;;;;;;7.23;4.67;;;14.30;1.00;;;;;;5095463;28;20457;-70
2023/06/04 06:17:03;;;;;;;6.37;5.27;;;14.40;1.00;;;;;;5095724;28;20514;-70
2023/06/04 06:19:30;;;;;;;4.63;2.53;;;14.50;1.00;;;;;;5095656;28;20469;-69
2023/06/04 06:21:58;;;;;;;3.63;1.87;;;14.60;1.00;;;;;;5095443;28;20544;-69
2023/06/04 06:24:26;;;;;;;2.93;1.60;;;14.70;1.00;;;;;;5095518;28;20453;-69
2023/06/04 06:26:53;;;;;;;4.10;1.97;;;14.80;1.00;;;;;;5095716;28;20538;-69
2023/06/04 06:29:20;;;;;;;2.13;1.40;;;14.90;1.00;;;;;;5095240;28;20456;-69
2023/06/04 06:31:47;;;;;;;1.60;1.27;;;15.00;1.00;;;;;;5095411;28;20548;-69
2023/06/04 06:34:14;;;;;;;3.17;1.50;;;15.10;1.00;;;;;;5095440;28;20557;-69
2023/06/04 06:36:41;;;;;;;2.93;1.37;;;15.20;1.00;;;;;;5095573;28;20817;-69
2023/06/04 06:39:08;;;;;;;2.20;1.27;;;15.30;1.00;;;;;;5095099;28;20460;-69
2023/06/04 06:41:38;;;;;;;2.47;1.50;;;15.30;1.00;;;;;;5095490;28;20468;-69
2023/06/04 06:44:05;;;;;;;2.20;1.20;;;15.40;1.00;;;;;;5095665;28;20475;-69
2023/06/04 06:46:32;;;;;;;1.50;1.27;;;15.50;1.00;;;;;;5095354;28;20500;-68
2023/06/04 06:48:58;;;;;;;5.60;1.40;;;15.80;1.00;;;;;;5095473;28;20552;-68
2023/06/04 06:51:25;;;;;;;6.67;1.60;;;16.00;1.00;;;;;;5095079;28;20786;-69
2023/06/04 06:53:52;;;;;;;1.63;1.10;;;16.00;1.00;;;;;;5094845;28;21067;-69
2023/06/04 06:56:19;;;;;;;5.70;1.60;;;16.00;1.00;;;;;;5095474;28;20454;-69
2023/06/04 06:58:48;;;;;;;4.87;1.50;;;16.10;1.00;;;;;;5095790;28;20780;-69
2023/06/04 07:01:15;;;;;;;3.00;1.33;;;16.30;1.00;;;;;;5095056;28;20485;-70
2023/06/04 07:03:42;;;;;;;6.13;1.33;;;16.50;1.00;;;;;;5095674;28;20788;-70
2023/06/04 07:06:10;;;;;;;1.60;1.23;;;16.70;1.00;;;;;;5095384;28;20540;-69
2023/06/04 07:08:37;;;;;;;8.23;1.40;;;16.80;1.00;;;;;;5094626;28;20464;-69
2023/06/04 07:11:04;;;;;;;2.10;1.20;;;16.80;1.00;;;;;;5094769;28;20450;-68
2023/06/04 07:13:32;;;;;;;2.00;1.20;;;16.90;1.00;;;;;;5094924;28;20467;-69
2023/06/04 07:16:00;;;;;;;2.90;1.40;;;17.00;1.00;;;;;;5094555;28;20800;-69
2023/06/04 07:18:27;;;;;;;2.70;1.10;;;17.00;1.00;;;;;;5094733;28;20457;-69
2023/06/04 07:20:54;;;;;;;1.57;1.10;;;17.10;1.00;;;;;;5094750;28;20477;-70
2023/06/04 07:23:21;;;;;;;2.50;1.30;;;17.20;1.00;;;;;;5094705;28;20453;-70
2023/06/04 07:25:47;;;;;;;5.23;1.23;;;17.20;1.00;;;;;;5095024;28;20496;-70
2023/06/04 07:28:15;;;;;;;1.93;1.10;;;17.20;1.00;;;;;;5094625;28;20453;-69
2023/06/04 07:30:42;;;;;;;3.30;1.33;;;17.30;1.00;;;;;;5094342;28;20449;-69
2023/06/04 07:33:10;;;;;;;3.70;1.30;;;17.30;1.00;;;;;;5094380;28;20496;-70
2023/06/04 07:35:37;;;;;;;3.13;1.33;;;17.30;1.00;;;;;;5094478;28;20463;-70
2023/06/04 07:38:03;;;;;;;4.20;1.37;;;17.40;1.00;;;;;;5094154;28;20517;-68
2023/06/04 07:40:31;;;;;;;7.13;1.17;;;17.40;1.00;;;;;;5094626;28;20477;-68
2023/06/04 07:42:57;;;;;;;1.53;1.00;;;17.50;1.00;;;;;;5094650;28;20481;-69
2023/06/04 07:45:24;;;;;;;2.23;1.20;;;17.50;1.00;;;;;;5094480;28;20511;-69
2023/06/04 07:47:51;;;;;;;2.33;1.37;;;17.60;1.00;;;;;;5094355;28;20544;-69
2023/06/04 07:50:19;;;;;;;2.40;1.13;;;17.70;1.00;;;;;;5093984;28;20459;-69
2023/06/04 07:52:46;;;;;;;1.60;1.00;;;17.70;1.00;;;;;;5093984;28;20908;-69
2023/06/04 07:55:13;;;;;;;1.27;1.00;;;17.80;1.00;;;;;;5093975;28;20929;-69
2023/06/04 07:57:40;;;;;;;2.03;1.10;;;17.80;1.00;;;;;;5094269;28;20463;-69
2023/06/04 08:00:08;;;;;;;4.00;1.70;;;17.90;1.00;;;;;;5094387;28;20979;-70
2023/06/04 08:02:36;;;;;;;2.20;1.70;;;17.90;1.00;;;;;;5094373;28;20914;-70
2023/06/04 08:05:03;;;;;;;2.53;1.80;;;18.00;1.00;;;;;;5094932;28;20449;-70
2023/06/04 08:07:32;;;;;;;3.00;1.60;;;18.10;1.00;;;;;;5097546;28;20461;-70
2023/06/04 08:09:58;;;;;;;2.73;1.57;;;18.10;1.00;;;;;;5098104;28;20459;-70
2023/06/04 08:12:25;;;;;;;2.73;1.10;;;18.20;1.00;;;;;;5097890;28;20459;-70
2023/06/04 08:14:56;;;;;;;1.40;1.00;;;18.20;1.00;;;;;;5097965;28;20510;-70
2023/06/04 08:17:23;;;;;;;1.30;1.00;;;18.30;1.00;;;;;;5098008;28;20447;-70
2023/06/04 08:19:50;;;;;;;3.40;1.23;;;18.30;1.00;;;;;;5098202;28;20492;-70
2023/06/04 08:22:17;;;;;;;2.60;1.00;;;18.30;1.00;;;;;;5097889;28;20473;-70
2023/06/04 08:24:45;;;;;;;1.67;1.10;;;18.40;1.00;;;;;;5098126;28;20468;-70
2023/06/04 08:27:13;;;;;;;1.83;1.27;;;18.50;1.00;;;;;;5098075;28;20452;-70
2023/06/04 08:29:40;;;;;;;2.70;1.17;;;18.50;1.00;;;;;;5097536;28;20539;-70
2023/06/04 08:32:08;;;;;;;1.77;1.17;;;18.60;1.00;;;;;;5097687;28;20457;-70
2023/06/04 08:34:35;;;;;;;1.50;1.00;;;18.60;1.00;;;;;;5097605;28;20466;-70
2023/06/04 08:37:02;;;;;;;2.03;1.10;;;18.60;1.00;;;;;;5097381;28;20477;-70
2023/06/04 08:39:29;;;;;;;1.67;0.97;;;18.60;1.00;;;;;;5098040;28;20457;-70
2023/06/04 08:42:01;;;;;;;1.93;1.10;;;18.70;1.00;;;;;;5097687;28;20865;-70
2023/06/04 08:44:29;;;;;;;2.20;1.13;;;18.70;1.00;;;;;;5097692;28;20874;-70
2023/06/04 08:47:03;;;;;;;2.27;1.33;;;18.70;1.00;;;;;;5097418;28;20831;-70
2023/06/04 08:49:33;;;;;;;2.93;1.53;;;18.80;1.00;;;;;;5097985;28;20436;-70
2023/06/04 08:52:00;;;;;;;1.90;1.00;;;18.90;1.00;;;;;;5097432;28;20449;-69
2023/06/04 08:54:28;;;;;;;1.47;1.10;;;19.20;1.00;;;;;;5097583;28;20453;-69
2023/06/04 08:56:58;;;;;;;1.60;1.00;;;19.20;1.00;;;;;;5097217;28;20997;-70
2023/06/04 08:59:25;;;;;;;3.77;1.10;;;19.30;1.00;;;;;;5097625;28;20457;-69
2023/06/04 09:01:54;;;;;;;1.80;1.10;;;19.20;1.00;;;;;;5097293;28;20986;-71
2023/06/04 09:04:21;;;;;;;2.20;1.40;;;19.20;1.00;;;;;;5096796;28;20457;-69
2023/06/04 09:06:49;;;;;;;2.10;1.17;;;19.30;1.00;;;;;;5097114;28;20453;-70
2023/06/04 09:09:17;;;;;;;2.00;1.20;;;19.40;1.00;;;;;;5096705;28;20888;-71
2023/06/04 09:11:50;;;;;;;1.27;0.97;;;19.50;1.00;;;;;;5096997;28;20986;-70
2023/06/04 09:14:19;;;;;;;1.80;1.50;;;19.50;1.00;;;;;;5096920;28;20738;-70
2023/06/04 09:16:47;;;;;;;3.33;1.10;;;19.50;1.00;;;;;;5096294;28;20544;-70
2023/06/04 09:19:14;;;;;;;2.30;1.13;;;19.50;1.00;;;;;;5096658;28;20460;-70
2023/06/04 09:21:49;;;;;;;2.50;1.10;;;19.50;1.00;;;;;;5097031;28;20556;-70
2023/06/04 09:24:16;;;;;;;2.37;1.17;;;19.60;1.00;;;;;;5096636;28;20467;-70
2023/06/04 09:26:43;;;;;;;1.87;1.20;;;19.70;1.00;;;;;;5096420;28;20951;-70
2023/06/04 09:29:10;;;;;;;1.63;1.20;;;19.70;1.00;;;;;;5098815;28;20485;-70
2023/06/04 09:31:39;;;;;;;1.40;1.00;;;19.60;1.00;;;;;;5096963;28;20483;-70
2023/06/04 09:34:07;;;;;;;1.33;0.90;;;19.60;1.00;;;;;;5096425;28;20468;-70
2023/06/04 09:36:34;;;;;;;2.07;1.20;;;19.60;1.00;;;;;;5095812;28;20628;-70
2023/06/04 09:39:05;;;;;;;4.20;3.70;;;19.60;1.00;;;;;;5096115;28;20894;-70
2023/06/04 09:41:32;;;;;;;4.40;1.07;;;19.60;1.00;;;;;;5095600;28;20953;-70
2023/06/04 09:44:03;;;;;;;3.70;1.20;;;19.60;1.00;;;;;;5095974;28;20549;-71
2023/06/04 09:46:31;;;;;;;1.53;0.80;;;19.50;1.00;;;;;;5096480;28;20557;-70
2023/06/04 09:49:03;;;;;;;1.37;0.87;;;19.50;1.00;;;;;;5096824;28;20540;-70
2023/06/04 09:51:31;;;;;;;1.50;0.90;;;19.50;1.00;;;;;;5096501;28;20442;-71
2023/06/04 09:54:00;;;;;;;1.40;0.90;;;19.50;1.00;;;;;;5096131;28;20809;-70
2023/06/04 09:56:27;;;;;;;2.80;1.17;;;19.50;1.00;;;;;;5096144;28;20484;-70
2023/06/04 09:58:56;;;;;;;1.70;1.03;;;19.50;1.00;;;;;;5095950;28;20544;-70
2023/06/04 10:01:27;;;;;;;1.80;0.93;;;19.60;1.00;;;;;;5095922;28;20477;-70
2023/06/04 10:03:56;;;;;;;1.87;1.10;;;19.60;1.00;;;;;;5095878;28;20917;-70
2023/06/04 10:06:26;;;;;;;2.40;1.38;;;19.70;1.00;;;;;;5095942;28;20452;-70
2023/06/04 10:08:55;;;;;;;1.70;1.07;;;19.70;1.00;;;;;;5096339;28;20269;-70
2023/06/04 10:11:27;;;;;;;1.70;0.90;;;19.70;1.00;;;;;;5095823;28;20484;-70
2023/06/04 10:13:57;;;;;;;3.60;1.00;;;19.80;1.00;;;;;;5095960;28;20452;-71
2023/06/04 10:16:26;;;;;;;3.13;0.97;;;19.80;1.00;;;;;;5096241;28;20456;-70
2023/06/04 10:18:55;;;;;;;1.70;1.00;;;19.90;1.00;;;;;;5096280;28;20457;-70
2023/06/04 10:21:24;;;;;;;2.33;1.20;;;19.90;1.00;;;;;;5096332;28;20492;-70
2023/06/04 10:23:51;;;;;;;5.83;5.23;;;20.00;1.00;;;;;;5095696;28;20484;-69
2023/06/04 10:26:18;;;;;;;2.20;1.00;;;20.10;1.00;;;;;;5095950;28;20479;-71
2023/06/04 10:28:45;;;;;;;6.47;1.20;;;20.20;1.00;;;;;;5094976;28;20458;-71
2023/06/04 10:31:13;;;;;;;1.50;0.90;;;20.30;1.00;;;;;;5096667;28;20751;-69
2023/06/04 10:33:40;;;;;;;1.20;0.93;;;20.30;1.00;;;;;;5096492;28;20484;-69
2023/06/04 10:36:18;;;;;;;2.97;1.20;;;20.40;1.00;;;;;;5096155;28;20468;-70
2023/06/04 10:38:51;;;;;;;3.20;1.10;;;20.40;1.00;;;;;;5096397;28;20894;-70
2023/06/04 10:41:21;;;;;;;1.93;1.10;;;20.50;1.00;;;;;;5095890;28;20487;-70
2023/06/04 10:43:49;;;;;;;2.73;1.20;;;20.50;1.00;;;;;;5095356;28;20457;-70
2023/06/04 10:46:17;;;;;;;1.87;0.93;;;20.60;1.00;;;;;;5095197;28;20467;-70
2023/06/04 10:48:51;;;;;;;1.70;1.30;;;20.40;1.00;;;;;;5095002;28;20489;-70
2023/06/04 10:51:30;;;;;;;2.47;0.97;;;20.40;1.00;;;;;;5094729;28;20540;-70
2023/06/04 10:54:00;;;;;;;2.63;1.80;;;20.50;1.00;;;;;;5095454;28;20441;-69
2023/06/04 10:56:27;;;;;;;3.10;2.17;;;20.50;1.00;;;;;;5095162;28;20453;-71
2023/06/04 10:58:54;;;;;;;3.53;1.30;;;20.50;1.00;;;;;;5094903;28;20462;-70
2023/06/04 11:01:25;;;;;;;1.73;1.00;;;20.70;1.00;;;;;;5094911;28;20481;-69
2023/06/04 11:03:52;;;;;;;2.53;1.67;;;20.80;1.00;;;;;;5095152;28;20483;-69
2023/06/04 11:06:20;;;;;;;1.40;1.00;;;21.00;1.00;;;;;;5095211;28;20453;-71
2023/06/04 11:08:48;;;;;;;2.47;1.10;;;21.10;1.00;;;;;;5095007;28;20526;-68
2023/06/04 11:11:17;;;;;;;2.03;1.17;;;21.20;1.00;;;;;;5095246;28;20449;-71
2023/06/04 11:13:44;;;;;;;1.90;0.90;;;21.40;1.00;;;;;;5095452;28;20786;-69
2023/06/04 11:16:17;;;;;;;1.30;1.10;;;21.50;1.00;;;;;;5094973;28;20453;-70
2023/06/04 11:18:44;;;;;;;4.30;1.90;;;21.80;1.00;;;;;;5094746;28;20471;-71
2023/06/04 11:21:14;;;;;;;2.10;0.97;;;22.50;1.00;;;;;;5095027;28;20471;-71
2023/06/04 11:23:41;;;;;;;2.90;1.10;;;23.30;1.00;;;;;;5095381;28;20452;-70
2023/06/04 11:26:08;;;;;;;7.07;1.60;;;24.30;1.00;;;;;;5095028;28;20894;-70
2023/06/04 11:28:36;;;;;;;3.17;1.20;;;25.40;1.00;;;;;;5095060;28;20464;-71
2023/06/04 11:31:05;;;;;;;2.03;1.10;;;26.40;1.00;;;;;;5094963;28;20560;-71
2023/06/04 11:33:42;;;;;;;1.87;1.33;;;27.20;1.00;;;;;;5094741;28;20787;-68
2023/06/04 11:36:09;;;;;;;1.70;1.17;;;28.10;1.00;;;;;;5094306;28;20558;-68
2023/06/04 11:38:36;;;;;;;2.50;1.10;;;28.70;1.00;;;;;;5094982;28;20862;-69
2023/06/04 11:41:05;;;;;;;2.37;1.23;;;29.20;1.00;;;;;;5098811;28;20879;-69
2023/06/04 11:43:34;;;;;;;2.40;1.23;;;29.60;1.00;;;;;;5098639;28;20552;-69
2023/06/04 11:46:06;;;;;;;2.07;1.40;;;30.20;1.00;;;;;;5098655;28;20824;-68
2023/06/04 11:48:34;;;;;;;1.87;1.50;;;30.70;1.00;;;;;;5098280;28;20920;-69
2023/06/04 11:51:07;;;;;;;2.13;1.10;;;31.00;1.00;;;;;;5098387;28;20449;-68
2023/06/04 11:53:35;;;;;;;5.43;1.30;;;31.10;1.00;;;;;;5098559;28;20442;-69
2023/06/04 11:56:02;;;;;;;1.97;0.90;;;31.30;1.00;;;;;;5098874;28;20457;-69
2023/06/04 11:58:29;;;;;;;3.40;1.20;;;31.50;1.00;;;;;;5098143;28;20899;-69
2023/06/04 12:00:57;;;;;;;1.87;1.10;;;31.60;1.00;;;;;;5098282;28;20488;-68
2023/06/04 12:03:36;;;;;;;2.67;2.40;;;31.70;1.00;;;;;;5098052;28;20476;-69
2023/06/04 12:06:11;;;;;;;2.70;1.40;;;31.70;1.00;;;;;;5098107;28;20445;-70
2023/06/04 12:08:47;;;;;;;1.77;1.00;;;31.70;1.00;;;;;;5097871;28;20437;-70
2023/06/04 12:11:26;;;;;;;7.23;1.30;;;31.60;1.00;;;;;;5098330;28;20502;-70
2023/06/04 12:13:53;;;;;;;2.47;1.10;;;31.80;1.00;;;;;;5097745;28;20441;-70
2023/06/04 12:16:20;;;;;;;2.00;1.30;;;32.00;1.00;;;;;;5098155;28;20453;-70
2023/06/04 12:18:50;;;;;;;1.93;1.03;;;32.10;1.00;;;;;;5097739;28;20906;-70
2023/06/04 12:21:26;;;;;;;1.60;1.00;;;32.00;1.00;;;;;;5097966;28;20449;-70
2023/06/04 12:23:54;;;;;;;1.80;1.40;;;31.80;1.00;;;;;;5097905;28;20448;-70
2023/06/04 12:26:28;;;;;;;1.40;1.23;;;32.00;1.00;;;;;;5097795;28;20859;-70
2023/06/04 12:29:10;;;;;;;1.93;1.70;;;32.00;1.00;;;;;;5098127;28;20441;-70
2023/06/04 12:31:37;;;;;;;2.57;1.20;;;32.00;1.00;;;;;;5097325;28;20516;-70
2023/06/04 12:34:05;;;;;;;5.27;1.00;;;31.80;1.00;;;;;;5097667;28;20854;-70
2023/06/04 12:36:33;;;;;;;1.83;1.23;;;32.00;1.00;;;;;;5097100;28;20473;-70
2023/06/04 12:39:01;;;;;;;2.00;1.20;;;32.20;1.00;;;;;;5097316;28;20465;-70
2023/06/04 12:41:29;;;;;;;2.80;1.23;;;32.40;1.00;;;;;;5097807;28;20647;-69
2023/06/04 12:43:56;;;;;;;1.60;1.23;;;32.60;1.00;;;;;;5097387;28;20459;-70
2023/06/04 12:46:24;;;;;;;2.30;1.33;;;32.80;1.00;;;;;;5097582;28;20453;-70
2023/06/04 12:48:51;;;;;;;3.10;1.13;;;32.80;1.00;;;;;;5097168;28;20544;-70
2023/06/04 12:51:20;;;;;;;2.40;1.20;;;32.60;1.00;;;;;;5096725;28;20481;-69
2023/06/04 12:53:47;;;;;;;4.17;1.17;;;32.00;1.00;;;;;;5097338;28;20974;-70
2023/06/04 12:56:14;;;;;;;2.60;1.23;;;31.50;1.00;;;;;;5097283;28;20765;-71
2023/06/04 12:58:41;;;;;;;1.50;0.90;;;30.90;1.00;;;;;;5097001;28;20476;-70
2023/06/04 13:01:08;;;;;;;2.43;1.20;;;31.10;1.00;;;;;;5097209;28;20453;-70
2023/06/04 13:03:37;;;;;;;2.57;1.10;;;31.30;1.00;;;;;;5097293;28;20463;-70